Terminal Aerodrome Forecast
Issued by NWS

Home | Current Version | Previous Version | Text Only | Print | Product List | Glossary On
Versions: 1 2 3 4 5 6 7 8 9 10 11 12 13 14 15 16 17 18 19 20 21 22 23 24 25 26 27 28 29 30 31
000
FTUS45 KCYS 302300
TAFAIA
TAF
KAIA 302320Z 3100/3124 19012G22KT P6SM VCTS BKN100CB
     FM310500 20010KT P6SM BKN150
     FM311300 32010KT P6SM BKN200
     FM311800 30010G22KT P6SM SCT070 BKN150=

USA.gov is the U.S. government's official web portal to all federal, state and local government web resources and services.